Terminal Aerodrome Forecast
Issued by NWS Dallas/Fort Worth, TX

Current Version | Previous Version | Text Only | Print | Product List | Glossary On
Versions: 1 2 3 4 5 6 7 8 9 10 11 12 13 14 15 16 17 18 19 20 21 22 23 24 25 26 27 28 29 30 31 32 33
000
FTUS44 KFWD 180523
TAFDFW
TAF
KDFW 180523Z 1806/1912 06008KT P6SM -RA VCTS BKN035CB
      TEMPO 1806/1809 5SM -TSRA BR BKN025CB
     FM180900 03005KT 5SM -RA BR VCTS OVC012CB
     FM181100 04006KT 4SM -RA BR OVC008
     FM181800 35005KT 3SM BR OVC006=

USA.gov is the U.S. government's official web portal to all federal, state and local government web resources and services.